Impacts METAR Board
IDs:

KSAN - San Diego Intl Arpt, CA, US

Updated at: 1700 UTC 03 Dec 2021
Potential Impact None Slight Moderate High
Time 03/05Z 03/06Z 03/07Z 03/08Z 03/09Z 03/10Z 03/11Z 03/12Z 03/13Z 03/14Z 03/15Z 03/16Z 03/17Z
Temp58 58 58 57 57 57 57 56 57 57 56 57 58
Dewpt52 52 52 52 52 52 52 51 51 50 50 50 50
Altim30.14 30.14 30.13 30.12 30.12 30.12 30.12 30.12 30.12 30.13 30.14 30.15 30.15
VIS10 10 10 10 9 7 8 10 10 10 8 7 7
CIG13 13 12 12 11 10 12 14 14 15 15 16 17
CoverOVCOVCOVCOVCOVCOVCOVCOVCOVCOVCOVCBKNOVC
FltCatMVFRMVFRMVFRMVFRMVFRMVFRMVFRMVFRMVFRMVFRMVFRMVFRMVFR
WX--------------------------
WDir310300320503500302036030304020
WSpd4 3 4 4 3 0 4 3 3 3 5 4 6
WGst-- -- -- -- -- -- -- -- -- -- -- -- --
Raw hourly METARs
KSAN 030451Z 31004KT 10SM OVC013 14/11 A3014 RMK AO2 SLP204 T01440111
KSAN 030551Z 30003KT 10SM OVC013 14/11 A3014 RMK AO2 SLP204 T01440111 10156 20139 51008
KSAN 030651Z 32004KT 10SM OVC012 14/11 A3013 RMK AO2 SLP204 T01440111
KSAN 030751Z 05004KT 10SM OVC012 14/11 A3012 RMK AO2 SLP200 T01390111 401670139
KSAN 030851Z 35003KT 9SM OVC011 14/11 A3012 RMK AO2 SLP198 T01390111 58006
KSAN 030951Z 00000KT 7SM OVC010 14/11 A3012 RMK AO2 SLP200 T01390111
KSAN 031051Z 03004KT 8SM OVC012 14/11 A3012 RMK AO2 SLP200 T01390111
KSAN 031151Z 02003KT 10SM OVC014 13/11 A3012 RMK AO2 SLP199 T01330106 10144 20133 50001
KSAN 031251Z 36003KT 10SM OVC014 14/11 A3012 RMK AO2 SLP199 T01390106
KSAN 031351Z 03003KT 10SM OVC015 14/10 A3013 RMK AO2 SLP203 T01390100
KSAN 031451Z 03005KT 8SM OVC015 13/10 A3014 RMK AO2 SLP205 T01330100 53006
KSAN 031551Z 04004KT 7SM BKN016 14/10 A3015 RMK AO2 SLP208 T01390100
KSAN 031651Z 02006KT 7SM OVC017 14/10 A3015 RMK AO2 SLP210 T01440100



Page loaded:  17:08 UTC  |   09:08 AM Pacific  |   10:08 AM Mountain  |   11:08 AM Central  |   12:08 PM Eastern

 

ADVISORIES

FORECASTS

FORECASTS

OBSERVATIONS

USER TOOLS

ABOUT US